Ulster, Pennsylvania
Current Conditions -  °F | °C
As of 4:37 AM on Thursday 27 Nov 2014 (Local Time) from KELM Reporting Station
Light Snow Light Snow  
Wind Chill: 30°   Ceiling: 1800
Heat Index: 30°   Visibility: 2mi
Dew Point: 28°   Wind: 0mph
Humidity: 92%   Direction: NA
Pressure: 29.98"   Gusts: NA
Location:  41.85°N, 76.5°W
Report Text: KELM 270937Z AUTO 00000KT 2SM -SN BR OVC018 M01/M02 A2998 RMK AO2 SNB11 P0000 T10111022
Loading
Personal Weather Stations






























Interactive Weather Map New forecast layout! Learn more

10-Day Weather Forecast

Advertisements
Track Severe Weather on mobile